AirNav   Phillips 66 Aviation Fuel
 
 761 users online  

6J8 Oak Tree Landing Airport
High Springs, Florida, USA

GOING TO HIGH SPRINGS?


FAA INFORMATION EFFECTIVE 07 DECEMBER 2017

Location

FAA Identifier: 6J8
Lat/Long: 29-43-12.9500N / 082-39-54.7500W
29-43.215833N / 082-39.912500W
29.7202639 / -82.6652083
(estimated)
Elevation: 90 ft. / 27 m (estimated)
Variation: 02W (1985)
From city: 7 miles SW of HIGH SPRINGS, FL
Time zone: UTC -5 (UTC -4 during Daylight Saving Time)
Zip code: 32669

Airport Operations

Airport use: Open to the public
Activation date: 12/1973
Control tower: no
ARTCC: JACKSONVILLE CENTER
FSS: GAINESVILLE FLIGHT SERVICE STATION
NOTAMs facility: GNV (NOTAM-D service available)
Attendance: UNATNDD
Wind indicator: lighted
Segmented circle: no
Landing fee: yes

Airport Communications

CTAF: 122.9

Nearby radio navigation aids

VOR radial/distance  VOR name  Freq  Var
GNVr279/20.5GATORS VORTAC116.2004W
CTYr072/21.3CROSS CITY VORTAC112.0002W
OCFr325/39.8OCALA VORTAC113.7000E

 
NDB name  Hdg/Dist  Freq  Var  ID
LAKE CITY192/28.320403WLCQ .-.. -.-. --.-

Airport Services

Runway Information

Runway 9/27

Dimensions: 4630 x 75 ft. / 1411 x 23 m
Surface: asphalt, in good condition
RUNWAY 9  RUNWAY 27
Latitude: 29-43.211667N29-43.220000N
Longitude: 082-40.350000W082-39.475000W
Elevation: 90.0 ft.90.0 ft.
Traffic pattern: leftleft
Displaced threshold: 100 ft.no
Markings: nonprecision, in fair conditionnonprecision, in fair condition
Touchdown point: yes, no lightsyes, no lights
Obstructions: 22 ft. road, 442 ft. from runway, 11:1 slope to clear
RY 09 20:1 APCH SLOPE TO THE DSPLCD THLD.
57 ft. trees, 1607 ft. from runway, 60 ft. left of centerline, 25:1 slope to clear

Airport Ownership and Management from official FAA records

Ownership: Privately-owned
Owner: OAK TREE LANDING LLC
300 SE 2ND ST
FORT LAUDERDALE, FL 33301
Phone 954-627-9300
Manager: JULIE COLE
3603 NW 63RD PLACE
GAINESVILLE, FL 32653
Phone 352-871-5354

Airport Operational Statistics

Aircraft operations: 200/year *
50% transient general aviation
50% local general aviation
* for 12-month period ending 21 April 2016

Additional Remarks

280 FT TWR 2 NM NW OF ARPT.

Instrument Procedures

There are no published instrument procedures at 6J8.

Some nearby airports with instrument procedures:

KGNV - Gainesville Regional Airport (21 nm E)
KCTY - Cross City Airport (23 nm W)
X60 - Williston Municipal Airport (24 nm SE)
KLCQ - Lake City Gateway Airport (28 nm N)
42J - Keystone Airpark (33 nm E)
 
Loc | Ops | Rwys | IFR | FBO | Links
Com | Nav | Svcs | Stats | Notes


 
Area around 6J8 (Oak Tree Landing Airport)
 
Road maps at: MapQuest Bing Google
 
Aerial photo
WARNING: Photo may not be current or correct
Aerial photo of 6J8 (Oak Tree Landing Airport)
Photo courtesy of the 100LL Flying Club

Do you have a better or more recent aerial photo of Oak Tree Landing Airport that you would like to share? If so, please send us your photo.

 
Sectional chart

 
Airport distance calculator
Flying to Oak Tree Landing Airport? Find the distance to fly.

From to 6J8

Sunrise and sunset
Times for 17-Dec-2017
 Local
(UTC-5)
 Zulu
(UTC)
Morning civil twilight06:5411:54
Sunrise07:2112:21
Sunset17:3322:33
Evening civil twilight17:5922:59

Current date and time
Zulu (UTC)  18-Dec-2017 03:52:19
Local (UTC-5)  17-Dec-2017 22:52:19
 
METAR
KGNV 
20nm E 
180336Z AUTO 00000KT 3SM BCFG BKN075 14/14 A3025 RMK AO2 T01440144
KX60 
24nm SE 
118.425 352-528-9949
180335Z AUTO 00000KT 8SM CLR 16/15 A3023 RMK A01
KCTY 
25nm SW 
180335Z AUTO 00000KT 10SM CLR 14/14 A3026 RMK AO2 T01400139
KLCQ 
28nm N 
180335Z AUTO 00000KT 10SM OVC070 16/15 A3022 RMK AO2
K42J 
33nm E 
180335Z AUTO 00000KT 10SM BKN080 15/15 A3023 RMK AO1 TSNO
K24J 
39nm NW 
180335Z AUTO 00000KT 10SM OVC055 17/17 A3022 RMK A01
TAF
KGNV 
20nm E 
171740Z 1718/1818 16006KT P6SM FEW035 BKN250 FM180700 00000KT 5SM BR FEW020 BKN120 FM180900 00000KT 2SM BR SCT010 SCT100 FM181400 24005KT P6SM BKN040
NOTAMs
Click for the latest NOTAMs
NOTAMs are issued by the DoD/FAA and will open in a separate window not controlled by AirNav.

 

 
 

Would you like to see your business listed on this page?

 If your business provides an interesting product or service to pilots, flight crews, aircraft, or users of the Oak Tree Landing Airport, you should consider listing it here.  To start the listing process, click on the button below
 
Add a business
 

Other Pages about Oak Tree Landing Airport

Update a link
 
Copyright © AirNav, LLC. All rights reserved. Privacy Policy  Contact